Memphis, TN

2:02 AM CDT en Octubre 25, 2014 (GMT -0500)
Sea Isle | Change Station
CLOSE
Current Station
Estación meteorológica personal
Location: Memphis, TN
Altura: 276 ft
Estaciones meteorológicas cercanas

Alt 276 ft 35.09 °N, 89.89 °W | Updated 2 seconds ago

Clear
Despejado
55.9 ° F
Sensación térmica 55.9 ° F
N
0.0
Viento Variable Viento desde Oeste
Gusts 0.0 mph

Hoy
Alta -- | Baja -- ° F
--% Posibilidad de precipitaciones
Ayer
Alta -- | Baja -- ° F
Precip. -- pul
7:14 AM 6:12 PM
Luna nueva, 2% visible
Presión 30.08 pul
Visibilidad 10.0 Millas
Nubes Despejado
Punto de rocío 56 ° F
Humedad 99%
Precipitaciones 0.00 pul
Espesor de la nieve No disponible.
UV 0 de una escala de 12
Polen 1.00 de una escala de 12
Ozono Buena
PM2.5 Moderada
Flu Activity No Activity
METAR KMEM 250654Z 00000KT 10SM CLR 15/12 A3009 RMK AO2 SLP186 T01500122 $

More Conditions Fewer Conditions

Presión 30.08 pul
Visibilidad 10.0 Millas
Nubes Despejado
Punto de rocío 56 ° F
Humedad 99%
Precipitaciones 0.00 pul
Espesor de la nieve No disponible.
UV 0 de una escala de 12
Polen 1.00 de una escala de 12
Ozono Buena
PM2.5 Moderada
Flu Activity No Activity
METAR KMEM 250654Z 00000KT 10SM CLR 15/12 A3009 RMK AO2 SLP186 T01500122 $

More Conditions Fewer Conditions

10-Day Weather Forecast

Almanac

Astronomía

Oct. 25, 2014 Salida Puesta
Hora real 7:14 AM CDT 6:12 PM CDT
Crepúsculo civil 6:48 AM CDT 6:38 PM CDT
Crepúsculo náutico 6:18 AM CDT 7:08 PM CDT
Crepúsculo astronómico 5:49 AM CDT 7:37 PM CDT
Luna 8:50 AM CDT 7:39 PM CDT
Horas de luz 11h 50m
Horas de luz
10h 58m
Tomorrow will be 2m 1s shorter.
Luna nueva, 2% of the Moon is Illuminated
Hoy
Luna nueva
Oct 30
Cuarto creciente
Nov 6
Luna llena
Nov 14
Cuarto menguante
Nov 22
Nueva

Extremos de hoy

Máximos del estado Bajos del estado

Community

WunderPhotos

Upload Photos

1,764,789 ¡fotos cargadas!

Nearby

Calidad del aire

  Calidad del aire Índice AQ Contaminante
Ayer Moderada
PM2.5
Ayer Buena
OZONE
Real Moderada
PM2.5
Real Buena
OZONE
Sábado Moderada
PM2.5
Sábado Buena
OZONE
Domingo Moderada
PM2.5
Domingo Buena
OZONE

Grosos de nieve

Estación Profundido Altura
No tenemos constancia de nieve nueva.

Actividad de terremotos

Ciudad Distance Mag. Tiempo y dato
No hay informes recientes de la actividad sísmica.
Magnitud mínima muestra es 2,5.

Temperaturas de aguas costeras

Lugar Temperatura
Sin partes meteorológicos de las estaciones

Estaciones meteorológicas cercanas